createdAt,value
2023-03-14T00:03:25.732Z,245.18
2023-03-14T00:07:25.711Z,246.88
2023-03-14T00:11:25.713Z,246.57
2023-03-14T00:15:25.667Z,246.10
2023-03-14T00:19:25.641Z,246.27
2023-03-14T00:23:25.561Z,245.13
2023-03-14T00:27:25.759Z,245.06
2023-03-14T00:31:25.671Z,246.77
2023-03-14T00:35:25.604Z,244.24
2023-03-14T00:39:25.576Z,246.90
2023-03-14T00:43:25.602Z,246.86
2023-03-14T00:47:25.494Z,244.96
2023-03-14T00:51:25.446Z,246.32
2023-03-14T00:55:25.456Z,244.91
2023-03-14T00:59:25.347Z,244.48
2023-03-14T01:03:25.549Z,244.60
2023-03-14T01:07:25.516Z,244.55
2023-03-14T01:11:25.458Z,244.63
2023-03-14T01:15:25.432Z,243.67
2023-03-14T01:19:25.454Z,243.87
2023-03-14T01:23:25.368Z,243.86
2023-03-14T01:27:25.348Z,243.51
2023-03-14T01:31:25.306Z,244.75
2023-03-14T01:35:25.240Z,242.04
2023-03-14T01:39:25.204Z,241.67
2023-03-14T01:43:25.160Z,240.42
2023-03-14T01:47:25.330Z,243.73
2023-03-14T01:51:25.303Z,242.42
2023-03-14T01:55:25.234Z,244.06
2023-03-14T01:59:25.199Z,240.74
2023-03-14T02:03:25.244Z,242.21
2023-03-14T02:07:25.152Z,242.81
2023-03-14T02:11:25.078Z,242.65
2023-03-14T02:15:25.103Z,241.52
2023-03-14T02:19:25.039Z,242.43
2023-03-14T02:23:24.984Z,240.65
2023-03-14T02:27:24.979Z,239.68
2023-03-14T02:31:24.975Z,238.07
2023-03-14T02:35:24.881Z,240.33
2023-03-14T02:39:25.012Z,239.43
2023-03-14T02:43:25.217Z,239.26
2023-03-14T02:47:25.364Z,239.37
2023-03-14T02:51:25.304Z,240.11
2023-03-14T02:55:25.269Z,239.56
2023-03-14T02:59:25.300Z,239.10
2023-03-14T03:03:25.225Z,239.13
2023-03-14T03:07:25.172Z,238.28
2023-03-14T03:11:25.134Z,238.47
2023-03-14T03:15:25.122Z,237.02
2023-03-14T03:19:25.144Z,236.53
2023-03-14T03:23:25.061Z,237.74
2023-03-14T03:27:25.034Z,235.70
2023-03-14T03:31:24.975Z,236.38
2023-03-14T03:35:24.943Z,236.69
2023-03-14T03:39:24.902Z,236.72
2023-03-14T03:43:24.857Z,236.03
2023-03-14T03:47:24.822Z,235.38
2023-03-14T03:51:24.758Z,237.38
2023-03-14T03:55:24.760Z,234.02
2023-03-14T03:59:24.700Z,234.85
2023-03-14T04:03:24.763Z,234.73
2023-03-14T04:07:24.645Z,235.45
2023-03-14T04:11:24.673Z,234.57
2023-03-14T04:15:24.570Z,231.19
2023-03-14T04:19:24.519Z,231.51
2023-03-14T04:23:24.520Z,233.29
2023-03-14T04:27:24.452Z,233.53
2023-03-14T04:31:24.452Z,232.60
2023-03-14T04:35:24.731Z,232.30
2023-03-14T04:39:24.421Z,230.96
2023-03-14T04:43:24.355Z,232.86
2023-03-14T04:47:24.675Z,232.82
2023-03-14T04:51:24.352Z,232.77
2023-03-14T04:55:24.593Z,231.24
2023-03-14T04:59:24.263Z,231.76
2023-03-14T05:03:24.266Z,230.17
2023-03-14T05:07:24.294Z,211.07
2023-03-14T05:11:24.361Z,194.84
2023-03-14T05:15:24.556Z,176.86
2023-03-14T05:19:24.711Z,146.63
2023-03-14T05:23:25.211Z,124.15
2023-03-14T05:27:24.612Z,108.79
2023-03-14T05:31:24.683Z,115.37
2023-03-14T05:35:24.606Z,132.17
2023-03-14T05:39:24.552Z,122.69
2023-03-14T05:43:24.540Z,134.84
2023-03-14T05:47:24.581Z,139.88
2023-03-14T05:51:24.456Z,150.93
2023-03-14T05:55:24.407Z,157.49
2023-03-14T05:59:24.368Z,158.31
2023-03-14T06:03:24.394Z,161.35
2023-03-14T06:07:24.321Z,160.88
2023-03-14T06:11:24.255Z,165.62
2023-03-14T06:15:24.199Z,172.62
2023-03-14T06:19:24.183Z,175.66
2023-03-14T06:23:24.194Z,174.65
2023-03-14T06:27:24.145Z,176.29
2023-03-14T06:31:24.281Z,180.04
2023-03-14T06:35:24.259Z,181.63
2023-03-14T06:39:24.743Z,205.58
2023-03-14T06:43:24.492Z,193.38
2023-03-14T06:47:24.315Z,188.30
2023-03-14T06:51:24.325Z,184.49
2023-03-14T06:55:24.309Z,195.95
2023-03-14T06:59:24.367Z,195.69
2023-03-14T07:03:24.512Z,201.68
2023-03-14T07:07:24.716Z,196.75
2023-03-14T07:11:24.438Z,175.16
2023-03-14T07:15:24.428Z,144.28
2023-03-14T07:19:24.359Z,132.38
2023-03-14T07:23:24.290Z,114.52
2023-03-14T07:27:24.277Z,109.28
2023-03-14T07:31:24.347Z,117.19
2023-03-14T07:35:24.248Z,113.83
2023-03-14T07:39:24.289Z,121.02
2023-03-14T07:43:24.118Z,140.60
2023-03-14T07:47:24.090Z,150.04
2023-03-14T07:51:24.110Z,164.16
2023-03-14T07:55:24.081Z,147.12
2023-03-14T07:59:24.007Z,141.44
2023-03-14T08:03:23.960Z,154.97
2023-03-14T08:07:23.917Z,137.05
2023-03-14T08:11:24.165Z,103.62
2023-03-14T08:15:24.272Z,93.83
2023-03-14T08:19:24.251Z,88.73
2023-03-14T08:23:24.298Z,91.01
2023-03-14T08:27:24.419Z,89.22
2023-03-14T08:31:24.972Z,107.06
2023-03-14T08:35:24.790Z,130.70
2023-03-14T08:39:24.590Z,165.52
2023-03-14T08:43:24.754Z,185.56
2023-03-14T08:47:25.003Z,194.77
2023-03-14T08:51:25.369Z,210.39
2023-03-14T08:55:25.092Z,228.05
2023-03-14T08:59:25.181Z,232.95
2023-03-14T09:03:25.103Z,224.87
2023-03-14T09:07:25.369Z,225.04
2023-03-14T09:11:25.115Z,213.37
2023-03-14T09:15:25.123Z,207.65
2023-03-14T09:19:25.321Z,218.36
2023-03-14T09:23:25.097Z,218.70
2023-03-14T09:27:25.175Z,167.53
2023-03-14T09:31:25.317Z,85.48
2023-03-14T09:35:25.834Z,26.74
2023-03-14T09:39:26.308Z,25.00
2023-03-14T09:43:25.445Z,69.68
2023-03-14T09:47:25.411Z,126.22
2023-03-14T09:51:25.335Z,138.63
2023-03-14T09:55:28.124Z,145.74
2023-03-14T09:59:25.297Z,155.95
2023-03-14T10:03:25.262Z,152.62
2023-03-14T10:07:25.233Z,152.26
2023-03-14T10:11:25.151Z,149.52
2023-03-14T10:15:25.126Z,148.03
2023-03-14T10:19:25.145Z,159.09
2023-03-14T10:23:25.069Z,141.90
2023-03-14T10:27:25.001Z,131.99
2023-03-14T10:31:29.675Z,137.90
2023-03-14T10:35:25.361Z,132.24
2023-03-14T10:39:25.851Z,161.63
2023-03-14T10:43:25.427Z,178.56
2023-03-14T10:47:26.178Z,182.62
2023-03-14T10:51:25.220Z,176.24
2023-03-14T10:55:25.158Z,152.88
2023-03-14T10:59:25.170Z,155.51
2023-03-14T11:03:25.153Z,164.96
2023-03-14T11:07:25.262Z,156.31
2023-03-14T11:11:25.160Z,172.55
2023-03-14T11:15:25.196Z,174.59
2023-03-14T11:19:25.205Z,180.62
2023-03-14T11:23:25.174Z,196.20
2023-03-14T11:27:25.218Z,122.18
2023-03-14T11:31:25.257Z,132.79
2023-03-14T11:35:25.366Z,162.04
2023-03-14T11:39:25.414Z,166.18
2023-03-14T11:43:25.430Z,151.03
2023-03-14T11:47:25.404Z,174.49
2023-03-14T11:51:25.395Z,161.00
2023-03-14T11:55:25.416Z,159.01
2023-03-14T11:59:25.482Z,160.60
2023-03-14T12:03:25.447Z,173.50
2023-03-14T12:07:25.365Z,178.56
2023-03-14T12:11:25.392Z,193.37
2023-03-14T12:15:25.287Z,201.75
2023-03-14T12:19:25.261Z,180.05
2023-03-14T12:23:25.240Z,140.23
2023-03-14T12:27:25.207Z,100.78
2023-03-14T12:31:25.222Z,102.55
2023-03-14T12:35:25.180Z,79.43
2023-03-14T12:39:25.084Z,54.53
2023-03-14T12:43:25.067Z,37.93
2023-03-14T12:47:25.038Z,37.51
2023-03-14T12:51:24.979Z,67.02
2023-03-14T12:55:25.047Z,73.07
2023-03-14T12:59:25.209Z,78.69
2023-03-14T13:03:25.453Z,139.03
2023-03-14T13:07:25.649Z,214.04
2023-03-14T13:11:25.720Z,180.51
2023-03-14T13:15:25.823Z,148.75
2023-03-14T13:19:25.781Z,166.19
2023-03-14T13:23:25.816Z,182.83
2023-03-14T13:27:25.920Z,181.06
2023-03-14T13:31:25.908Z,187.62
2023-03-14T13:35:26.008Z,177.92
2023-03-14T13:39:25.862Z,181.37
2023-03-14T13:43:25.858Z,184.48
2023-03-14T13:47:25.951Z,186.25
2023-03-14T13:51:25.904Z,202.88
2023-03-14T13:55:25.905Z,203.28
2023-03-14T13:59:25.925Z,208.45
2023-03-14T14:03:26.057Z,206.78
2023-03-14T14:07:26.001Z,186.08
2023-03-14T14:11:32.703Z,164.25
2023-03-14T14:15:26.942Z,164.26
2023-03-14T14:19:26.150Z,169.67
2023-03-14T14:23:25.893Z,219.60
2023-03-14T14:27:27.373Z,229.07
2023-03-14T14:31:25.948Z,243.06
2023-03-14T14:35:25.975Z,249.77
2023-03-14T14:39:26.122Z,246.86
2023-03-14T14:43:26.374Z,243.58
2023-03-14T14:47:26.356Z,234.33
2023-03-14T14:51:26.274Z,223.59
2023-03-14T14:55:26.306Z,216.94
2023-03-14T14:59:26.186Z,214.43
2023-03-14T15:03:26.180Z,208.21
2023-03-14T15:07:28.157Z,203.13
2023-03-14T15:11:26.121Z,197.90
2023-03-14T15:15:26.095Z,190.21
2023-03-14T15:19:26.093Z,192.01
2023-03-14T15:23:26.111Z,201.98
2023-03-14T15:27:26.123Z,217.48
2023-03-14T15:31:26.051Z,222.12
2023-03-14T15:35:26.076Z,224.86
2023-03-14T15:39:26.028Z,224.76
2023-03-14T15:43:26.130Z,231.68
2023-03-14T15:47:26.143Z,231.18
2023-03-14T15:51:26.120Z,232.53
2023-03-14T15:55:26.151Z,232.96
2023-03-14T15:59:26.128Z,230.08
2023-03-14T16:03:26.173Z,233.31
2023-03-14T16:07:26.114Z,231.86
2023-03-14T16:11:26.127Z,232.66
2023-03-14T16:15:26.128Z,233.10
2023-03-14T16:19:26.065Z,230.42
2023-03-14T16:23:26.498Z,230.65
2023-03-14T16:27:26.048Z,230.28
2023-03-14T16:31:26.123Z,226.31
2023-03-14T16:35:26.498Z,229.23
2023-03-14T16:39:26.029Z,227.34
2023-03-14T16:43:26.075Z,228.38
2023-03-14T16:47:26.085Z,226.79
2023-03-14T16:51:26.049Z,227.43
2023-03-14T16:55:26.131Z,224.39
2023-03-14T16:59:26.162Z,226.72
2023-03-14T17:03:26.258Z,226.41
2023-03-14T17:07:26.269Z,226.32
2023-03-14T17:11:26.348Z,226.58
2023-03-14T17:15:26.446Z,225.74
2023-03-14T17:19:26.510Z,223.13
2023-03-14T17:23:26.603Z,223.35
2023-03-14T17:27:26.730Z,222.84
2023-03-14T17:31:26.857Z,222.33
2023-03-14T17:35:26.980Z,216.25
2023-03-14T17:39:27.052Z,215.03
2023-03-14T17:43:27.169Z,213.12
2023-03-14T17:47:27.506Z,207.92
2023-03-14T17:51:27.522Z,207.03
2023-03-14T17:55:28.040Z,206.89
2023-03-14T17:59:28.019Z,203.64
2023-03-14T18:03:27.873Z,201.69
2023-03-14T18:07:28.056Z,205.79
2023-03-14T18:11:28.206Z,204.14
2023-03-14T18:15:28.394Z,201.03
2023-03-14T18:19:28.596Z,198.52
2023-03-14T18:23:29.066Z,197.39
2023-03-14T18:27:28.927Z,198.19
2023-03-14T18:31:29.099Z,192.39
2023-03-14T18:35:29.247Z,197.91
2023-03-14T18:39:29.488Z,195.03
2023-03-14T18:43:29.410Z,146.88
2023-03-14T18:47:29.417Z,94.45
2023-03-14T18:51:29.416Z,74.96
2023-03-14T18:55:29.285Z,45.80
2023-03-14T18:59:29.235Z,34.04
2023-03-14T19:03:29.250Z,30.47
2023-03-14T19:07:29.196Z,31.82
2023-03-14T19:11:29.213Z,50.91
2023-03-14T19:15:29.137Z,59.70
2023-03-14T19:19:29.113Z,63.16
2023-03-14T19:23:29.053Z,95.48
2023-03-14T19:27:29.054Z,108.07
2023-03-14T19:31:28.998Z,111.38
2023-03-14T19:35:28.975Z,121.83
2023-03-14T19:39:28.934Z,135.26
2023-03-14T19:43:28.899Z,139.15
2023-03-14T19:47:28.809Z,150.04
2023-03-14T19:51:28.830Z,154.81
2023-03-14T19:55:28.777Z,160.23
2023-03-14T19:59:28.717Z,164.99
2023-03-14T20:03:28.715Z,171.19
2023-03-14T20:07:28.800Z,175.11
2023-03-14T20:11:28.895Z,178.61
2023-03-14T20:15:28.899Z,185.18
2023-03-14T20:19:29.004Z,190.10
2023-03-14T20:23:29.032Z,196.19
2023-03-14T20:27:29.018Z,200.41
2023-03-14T20:31:29.028Z,199.99
2023-03-14T20:35:28.929Z,203.85
2023-03-14T20:39:28.923Z,202.60
2023-03-14T20:43:28.985Z,203.84
2023-03-14T20:47:28.910Z,202.12
2023-03-14T20:51:28.918Z,200.46
2023-03-14T20:55:28.882Z,202.84
2023-03-14T20:59:28.881Z,202.42
2023-03-14T21:03:28.815Z,200.59
2023-03-14T21:07:47.547Z,25.00
2023-03-14T21:11:47.510Z,26.63
2023-03-14T21:15:47.608Z,26.71
2023-03-14T21:19:47.448Z,29.49
2023-03-14T21:23:47.460Z,28.88
2023-03-14T21:27:47.427Z,29.28
2023-03-14T21:31:47.410Z,28.34
2023-03-14T21:35:47.351Z,28.78
2023-03-14T21:39:47.276Z,29.01
2023-03-14T21:43:47.285Z,26.72
2023-03-14T21:47:47.168Z,28.74
2023-03-14T21:51:47.173Z,30.14
2023-03-14T21:55:47.118Z,30.46
2023-03-14T21:59:47.072Z,29.63
2023-03-14T22:03:47.080Z,34.15
2023-03-14T22:07:47.273Z,31.56
2023-03-14T22:11:46.956Z,31.80
2023-03-14T22:15:47.111Z,29.97
2023-03-14T22:19:46.899Z,32.30
2023-03-14T22:23:46.877Z,32.22
2023-03-14T22:27:46.801Z,32.18
2023-03-14T22:31:46.866Z,33.46
2023-03-14T22:35:46.839Z,33.08
2023-03-14T22:39:46.702Z,30.11
2023-03-14T22:43:46.645Z,32.81
2023-03-14T22:47:46.688Z,32.37
2023-03-14T22:51:46.710Z,32.78
2023-03-14T22:55:46.838Z,30.04
2023-03-14T22:59:46.860Z,30.74
2023-03-14T23:03:46.946Z,29.62
2023-03-14T23:07:47.022Z,28.67
2023-03-14T23:11:47.099Z,27.42
2023-03-14T23:15:47.178Z,28.82
2023-03-14T23:19:47.317Z,28.42
2023-03-14T23:23:47.402Z,30.78
2023-03-14T23:27:47.439Z,30.55
2023-03-14T23:31:47.512Z,28.09
2023-03-14T23:35:47.831Z,28.36
2023-03-14T23:39:47.718Z,30.59
2023-03-14T23:43:47.806Z,28.95
2023-03-14T23:47:47.874Z,28.61
2023-03-14T23:51:47.958Z,30.10
2023-03-14T23:55:48.020Z,28.29
2023-03-14T23:59:48.145Z,28.68
